sensor_id;sensor_type;location;lat;lon;timestamp;temperature;humidity
2459;DHT22;1241;50.920;6.936;2023-05-29T00:02:14;16.90;99.90
2459;DHT22;1241;50.920;6.936;2023-05-29T00:04:40;16.90;99.90
2459;DHT22;1241;50.920;6.936;2023-05-29T00:07:06;16.90;99.90
2459;DHT22;1241;50.920;6.936;2023-05-29T00:09:31;16.80;99.90
2459;DHT22;1241;50.920;6.936;2023-05-29T00:11:57;16.80;99.90
2459;DHT22;1241;50.920;6.936;2023-05-29T00:14:23;16.80;99.90
2459;DHT22;1241;50.920;6.936;2023-05-29T00:16:49;16.80;99.90
2459;DHT22;1241;50.920;6.936;2023-05-29T00:19:15;16.60;99.90
2459;DHT22;1241;50.920;6.936;2023-05-29T00:21:47;16.40;99.90
2459;DHT22;1241;50.920;6.936;2023-05-29T00:24:16;16.40;99.90
2459;DHT22;1241;50.920;6.936;2023-05-29T00:26:42;16.30;99.90
2459;DHT22;1241;50.920;6.936;2023-05-29T00:29:08;16.30;99.90
2459;DHT22;1241;50.920;6.936;2023-05-29T00:31:34;16.20;99.90
2459;DHT22;1241;50.920;6.936;2023-05-29T00:34:01;16.10;99.90
2459;DHT22;1241;50.920;6.936;2023-05-29T00:36:27;16.10;99.90
2459;DHT22;1241;50.920;6.936;2023-05-29T00:38:55;16.00;99.90
2459;DHT22;1241;50.920;6.936;2023-05-29T00:41:20;16.00;99.90
2459;DHT22;1241;50.920;6.936;2023-05-29T00:43:46;15.90;99.90
2459;DHT22;1241;50.920;6.936;2023-05-29T00:46:12;15.80;99.90
2459;DHT22;1241;50.920;6.936;2023-05-29T00:48:38;15.70;99.90
2459;DHT22;1241;50.920;6.936;2023-05-29T00:51:04;15.70;99.90
2459;DHT22;1241;50.920;6.936;2023-05-29T00:53:30;15.70;99.90
2459;DHT22;1241;50.920;6.936;2023-05-29T00:55:57;15.60;99.90
2459;DHT22;1241;50.920;6.936;2023-05-29T00:58:23;15.60;99.90
2459;DHT22;1241;50.920;6.936;2023-05-29T01:00:49;15.60;99.90
2459;DHT22;1241;50.920;6.936;2023-05-29T01:03:16;15.60;99.90
2459;DHT22;1241;50.920;6.936;2023-05-29T01:05:42;15.60;99.90
2459;DHT22;1241;50.920;6.936;2023-05-29T01:08:07;15.50;99.90
2459;DHT22;1241;50.920;6.936;2023-05-29T01:10:35;15.50;99.90
2459;DHT22;1241;50.920;6.936;2023-05-29T01:16:01;15.40;99.90
2459;DHT22;1241;50.920;6.936;2023-05-29T01:28:07;15.30;99.90
2459;DHT22;1241;50.920;6.936;2023-05-29T01:30:34;15.30;99.90
2459;DHT22;1241;50.920;6.936;2023-05-29T01:33:00;15.20;99.90
2459;DHT22;1241;50.920;6.936;2023-05-29T01:35:26;15.10;99.90
2459;DHT22;1241;50.920;6.936;2023-05-29T01:37:54;15.10;99.90
2459;DHT22;1241;50.920;6.936;2023-05-29T01:40:21;15.00;99.90
2459;DHT22;1241;50.920;6.936;2023-05-29T01:42:47;14.90;99.90
2459;DHT22;1241;50.920;6.936;2023-05-29T01:45:13;15.00;99.90
2459;DHT22;1241;50.920;6.936;2023-05-29T01:47:38;14.90;99.90
2459;DHT22;1241;50.920;6.936;2023-05-29T01:50:04;14.90;99.90
2459;DHT22;1241;50.920;6.936;2023-05-29T01:52:30;14.80;99.90
2459;DHT22;1241;50.920;6.936;2023-05-29T01:54:56;14.80;99.90
2459;DHT22;1241;50.920;6.936;2023-05-29T01:57:21;14.80;99.90
2459;DHT22;1241;50.920;6.936;2023-05-29T01:59:47;14.80;99.90
2459;DHT22;1241;50.920;6.936;2023-05-29T02:02:14;14.70;99.90
2459;DHT22;1241;50.920;6.936;2023-05-29T02:04:40;14.70;99.90
2459;DHT22;1241;50.920;6.936;2023-05-29T02:07:05;14.60;99.90
2459;DHT22;1241;50.920;6.936;2023-05-29T02:09:32;14.50;99.90
2459;DHT22;1241;50.920;6.936;2023-05-29T02:11:58;14.40;99.90
2459;DHT22;1241;50.920;6.936;2023-05-29T02:14:23;14.30;99.90
2459;DHT22;1241;50.920;6.936;2023-05-29T02:16:53;14.20;99.90
2459;DHT22;1241;50.920;6.936;2023-05-29T02:19:18;14.20;99.90
2459;DHT22;1241;50.920;6.936;2023-05-29T02:21:44;14.10;99.90
2459;DHT22;1241;50.920;6.936;2023-05-29T02:24:12;14.00;99.90
2459;DHT22;1241;50.920;6.936;2023-05-29T02:26:39;14.00;99.90
2459;DHT22;1241;50.920;6.936;2023-05-29T02:29:05;14.00;99.90
2459;DHT22;1241;50.920;6.936;2023-05-29T02:31:31;13.90;99.90
2459;DHT22;1241;50.920;6.936;2023-05-29T02:33:56;13.90;99.90
2459;DHT22;1241;50.920;6.936;2023-05-29T02:36:22;13.90;99.90
2459;DHT22;1241;50.920;6.936;2023-05-29T02:38:50;13.90;99.90
2459;DHT22;1241;50.920;6.936;2023-05-29T02:41:16;13.90;99.90
2459;DHT22;1241;50.920;6.936;2023-05-29T02:43:42;13.80;99.90
2459;DHT22;1241;50.920;6.936;2023-05-29T02:46:08;13.80;99.90
2459;DHT22;1241;50.920;6.936;2023-05-29T02:48:33;13.80;99.90
2459;DHT22;1241;50.920;6.936;2023-05-29T02:50:59;13.80;99.90
2459;DHT22;1241;50.920;6.936;2023-05-29T02:53:25;13.70;99.90
2459;DHT22;1241;50.920;6.936;2023-05-29T02:55:51;13.60;99.90
2459;DHT22;1241;50.920;6.936;2023-05-29T02:58:17;13.60;99.90
2459;DHT22;1241;50.920;6.936;2023-05-29T03:00:42;13.60;99.90
2459;DHT22;1241;50.920;6.936;2023-05-29T03:03:08;13.70;99.90
2459;DHT22;1241;50.920;6.936;2023-05-29T03:05:38;13.80;99.90
2459;DHT22;1241;50.920;6.936;2023-05-29T03:08:04;13.90;99.90
2459;DHT22;1241;50.920;6.936;2023-05-29T03:10:29;13.70;99.90
2459;DHT22;1241;50.920;6.936;2023-05-29T03:12:55;13.70;99.90
2459;DHT22;1241;50.920;6.936;2023-05-29T03:15:21;13.70;99.90
2459;DHT22;1241;50.920;6.936;2023-05-29T03:17:47;13.70;99.90
2459;DHT22;1241;50.920;6.936;2023-05-29T03:20:16;13.80;99.90
2459;DHT22;1241;50.920;6.936;2023-05-29T03:22:41;13.60;99.90
2459;DHT22;1241;50.920;6.936;2023-05-29T03:25:08;13.60;99.90
2459;DHT22;1241;50.920;6.936;2023-05-29T03:27:34;13.50;99.90
2459;DHT22;1241;50.920;6.936;2023-05-29T03:30:08;13.50;99.90
2459;DHT22;1241;50.920;6.936;2023-05-29T03:32:36;13.60;99.90
2459;DHT22;1241;50.920;6.936;2023-05-29T03:35:02;13.60;99.90
2459;DHT22;1241;50.920;6.936;2023-05-29T03:37:29;13.50;99.90
2459;DHT22;1241;50.920;6.936;2023-05-29T03:39:55;13.60;99.90
2459;DHT22;1241;50.920;6.936;2023-05-29T03:42:21;13.50;99.90
2459;DHT22;1241;50.920;6.936;2023-05-29T03:44:49;13.50;99.90
2459;DHT22;1241;50.920;6.936;2023-05-29T03:47:15;13.50;99.90
2459;DHT22;1241;50.920;6.936;2023-05-29T03:49:40;13.50;99.90
2459;DHT22;1241;50.920;6.936;2023-05-29T03:52:06;13.50;99.90
2459;DHT22;1241;50.920;6.936;2023-05-29T03:54:32;13.50;99.90
2459;DHT22;1241;50.920;6.936;2023-05-29T03:57:00;13.50;99.90
2459;DHT22;1241;50.920;6.936;2023-05-29T03:59:27;13.40;99.90
2459;DHT22;1241;50.920;6.936;2023-05-29T04:01:52;13.30;99.90
2459;DHT22;1241;50.920;6.936;2023-05-29T04:04:19;13.20;99.90
2459;DHT22;1241;50.920;6.936;2023-05-29T04:06:45;13.20;99.90
2459;DHT22;1241;50.920;6.936;2023-05-29T04:09:11;13.20;99.90
2459;DHT22;1241;50.920;6.936;2023-05-29T04:11:37;13.20;99.90
2459;DHT22;1241;50.920;6.936;2023-05-29T04:14:04;13.30;99.90
2459;DHT22;1241;50.920;6.936;2023-05-29T04:16:30;13.50;99.90
2459;DHT22;1241;50.920;6.936;2023-05-29T04:18:55;13.80;99.90
2459;DHT22;1241;50.920;6.936;2023-05-29T04:21:24;13.90;99.90
2459;DHT22;1241;50.920;6.936;2023-05-29T04:23:52;13.80;99.90
2459;DHT22;1241;50.920;6.936;2023-05-29T04:26:20;13.90;99.90
2459;DHT22;1241;50.920;6.936;2023-05-29T04:28:51;14.20;99.90
2459;DHT22;1241;50.920;6.936;2023-05-29T04:31:18;14.50;99.90
2459;DHT22;1241;50.920;6.936;2023-05-29T04:33:43;14.60;99.90
2459;DHT22;1241;50.920;6.936;2023-05-29T04:36:10;15.00;99.90
2459;DHT22;1241;50.920;6.936;2023-05-29T04:38:39;15.30;99.90
2459;DHT22;1241;50.920;6.936;2023-05-29T04:41:06;15.40;99.90
2459;DHT22;1241;50.920;6.936;2023-05-29T04:43:34;15.50;99.90
2459;DHT22;1241;50.920;6.936;2023-05-29T04:46:04;15.70;99.90
2459;DHT22;1241;50.920;6.936;2023-05-29T04:48:33;16.30;99.90
2459;DHT22;1241;50.920;6.936;2023-05-29T04:50:58;16.70;99.90
2459;DHT22;1241;50.920;6.936;2023-05-29T04:53:25;16.90;99.90
2459;DHT22;1241;50.920;6.936;2023-05-29T04:55:52;16.90;99.90
2459;DHT22;1241;50.920;6.936;2023-05-29T04:58:17;16.80;99.90
2459;DHT22;1241;50.920;6.936;2023-05-29T05:00:43;16.90;99.90
2459;DHT22;1241;50.920;6.936;2023-05-29T05:03:09;16.90;99.90
2459;DHT22;1241;50.920;6.936;2023-05-29T05:05:36;16.50;99.90
2459;DHT22;1241;50.920;6.936;2023-05-29T05:08:02;16.50;99.90
2459;DHT22;1241;50.920;6.936;2023-05-29T05:10:28;16.10;99.90
2459;DHT22;1241;50.920;6.936;2023-05-29T05:12:54;16.10;99.90
2459;DHT22;1241;50.920;6.936;2023-05-29T05:15:21;16.20;99.90
2459;DHT22;1241;50.920;6.936;2023-05-29T05:17:47;16.30;99.90
2459;DHT22;1241;50.920;6.936;2023-05-29T05:20:13;16.20;99.90
2459;DHT22;1241;50.920;6.936;2023-05-29T05:22:39;16.40;99.90
2459;DHT22;1241;50.920;6.936;2023-05-29T05:25:06;16.60;99.90
2459;DHT22;1241;50.920;6.936;2023-05-29T05:27:33;16.80;99.90
2459;DHT22;1241;50.920;6.936;2023-05-29T05:29:58;17.00;99.90
2459;DHT22;1241;50.920;6.936;2023-05-29T05:32:25;17.40;99.90
2459;DHT22;1241;50.920;6.936;2023-05-29T05:34:58;17.70;99.90
2459;DHT22;1241;50.920;6.936;2023-05-29T05:37:24;17.90;99.90
2459;DHT22;1241;50.920;6.936;2023-05-29T05:39:50;18.00;99.90
2459;DHT22;1241;50.920;6.936;2023-05-29T05:42:16;18.10;99.90
2459;DHT22;1241;50.920;6.936;2023-05-29T05:44:47;18.60;99.90
2459;DHT22;1241;50.920;6.936;2023-05-29T05:47:14;18.80;99.90
2459;DHT22;1241;50.920;6.936;2023-05-29T05:49:41;19.00;99.90
2459;DHT22;1241;50.920;6.936;2023-05-29T05:52:09;19.10;99.90
2459;DHT22;1241;50.920;6.936;2023-05-29T05:54:35;19.50;99.90
2459;DHT22;1241;50.920;6.936;2023-05-29T05:57:01;19.80;99.90
2459;DHT22;1241;50.920;6.936;2023-05-29T05:59:29;20.00;99.90
2459;DHT22;1241;50.920;6.936;2023-05-29T06:01:54;20.30;99.90
2459;DHT22;1241;50.920;6.936;2023-05-29T06:04:20;20.60;99.90
2459;DHT22;1241;50.920;6.936;2023-05-29T06:06:46;20.50;99.90
2459;DHT22;1241;50.920;6.936;2023-05-29T06:09:13;20.40;99.90
2459;DHT22;1241;50.920;6.936;2023-05-29T06:11:39;20.20;99.90
2459;DHT22;1241;50.920;6.936;2023-05-29T06:14:05;20.20;99.90
2459;DHT22;1241;50.920;6.936;2023-05-29T06:16:31;20.50;99.90
2459;DHT22;1241;50.920;6.936;2023-05-29T06:18:57;20.90;99.90
2459;DHT22;1241;50.920;6.936;2023-05-29T06:21:24;21.50;99.90
2459;DHT22;1241;50.920;6.936;2023-05-29T06:23:54;21.70;99.90
2459;DHT22;1241;50.920;6.936;2023-05-29T06:26:21;21.70;99.90
2459;DHT22;1241;50.920;6.936;2023-05-29T06:28:48;21.90;99.90
2459;DHT22;1241;50.920;6.936;2023-05-29T06:31:14;22.10;99.90
2459;DHT22;1241;50.920;6.936;2023-05-29T06:33:40;22.30;99.90
2459;DHT22;1241;50.920;6.936;2023-05-29T06:36:06;22.70;99.90
2459;DHT22;1241;50.920;6.936;2023-05-29T06:38:33;22.40;99.90
2459;DHT22;1241;50.920;6.936;2023-05-29T06:40:59;22.00;99.90
2459;DHT22;1241;50.920;6.936;2023-05-29T06:43:25;21.90;99.90
2459;DHT22;1241;50.920;6.936;2023-05-29T06:45:56;21.60;99.90
2459;DHT22;1241;50.920;6.936;2023-05-29T06:48:22;21.10;99.90
2459;DHT22;1241;50.920;6.936;2023-05-29T06:50:48;20.40;99.90
2459;DHT22;1241;50.920;6.936;2023-05-29T06:53:40;20.30;99.90
2459;DHT22;1241;50.920;6.936;2023-05-29T06:56:07;20.00;99.90
2459;DHT22;1241;50.920;6.936;2023-05-29T06:58:33;20.40;99.90
2459;DHT22;1241;50.920;6.936;2023-05-29T07:00:59;20.80;99.90
2459;DHT22;1241;50.920;6.936;2023-05-29T07:03:36;20.90;99.90
2459;DHT22;1241;50.920;6.936;2023-05-29T07:06:03;20.70;99.90
2459;DHT22;1241;50.920;6.936;2023-05-29T07:08:30;20.90;99.90
2459;DHT22;1241;50.920;6.936;2023-05-29T07:10:56;21.20;99.90
2459;DHT22;1241;50.920;6.936;2023-05-29T07:13:25;21.40;99.90
2459;DHT22;1241;50.920;6.936;2023-05-29T07:15:52;21.60;99.90
2459;DHT22;1241;50.920;6.936;2023-05-29T07:18:23;21.90;99.90
2459;DHT22;1241;50.920;6.936;2023-05-29T07:20:49;22.00;99.90
2459;DHT22;1241;50.920;6.936;2023-05-29T07:23:18;22.10;99.90
2459;DHT22;1241;50.920;6.936;2023-05-29T07:25:43;22.40;99.90
2459;DHT22;1241;50.920;6.936;2023-05-29T07:28:09;22.50;99.90
2459;DHT22;1241;50.920;6.936;2023-05-29T07:30:36;22.60;99.90
2459;DHT22;1241;50.920;6.936;2023-05-29T07:33:04;22.30;99.90
2459;DHT22;1241;50.920;6.936;2023-05-29T07:35:30;22.10;99.90
2459;DHT22;1241;50.920;6.936;2023-05-29T07:37:59;22.20;99.90
2459;DHT22;1241;50.920;6.936;2023-05-29T07:40:25;22.10;99.90
2459;DHT22;1241;50.920;6.936;2023-05-29T07:43:30;22.30;99.90
2459;DHT22;1241;50.920;6.936;2023-05-29T07:45:59;22.60;99.90
2459;DHT22;1241;50.920;6.936;2023-05-29T07:48:25;22.60;99.90
2459;DHT22;1241;50.920;6.936;2023-05-29T07:50:51;22.80;99.90
2459;DHT22;1241;50.920;6.936;2023-05-29T07:53:17;23.00;99.90
2459;DHT22;1241;50.920;6.936;2023-05-29T07:55:44;23.10;99.90
2459;DHT22;1241;50.920;6.936;2023-05-29T07:58:09;23.30;99.90
2459;DHT22;1241;50.920;6.936;2023-05-29T08:00:37;22.70;99.90
2459;DHT22;1241;50.920;6.936;2023-05-29T08:03:04;22.10;99.90
2459;DHT22;1241;50.920;6.936;2023-05-29T08:05:30;22.10;99.90
2459;DHT22;1241;50.920;6.936;2023-05-29T08:07:59;22.30;99.90
2459;DHT22;1241;50.920;6.936;2023-05-29T08:10:25;22.40;99.90
2459;DHT22;1241;50.920;6.936;2023-05-29T08:12:51;22.20;99.90
2459;DHT22;1241;50.920;6.936;2023-05-29T08:15:18;22.20;99.90
2459;DHT22;1241;50.920;6.936;2023-05-29T08:17:44;21.80;99.90
2459;DHT22;1241;50.920;6.936;2023-05-29T08:20:10;21.60;99.90
2459;DHT22;1241;50.920;6.936;2023-05-29T08:22:36;21.00;99.90
2459;DHT22;1241;50.920;6.936;2023-05-29T08:25:02;20.70;99.90
2459;DHT22;1241;50.920;6.936;2023-05-29T08:27:27;20.50;99.90
2459;DHT22;1241;50.920;6.936;2023-05-29T08:29:53;20.30;99.90
2459;DHT22;1241;50.920;6.936;2023-05-29T08:32:20;20.10;99.90
2459;DHT22;1241;50.920;6.936;2023-05-29T08:34:46;19.90;99.90
2459;DHT22;1241;50.920;6.936;2023-05-29T08:37:12;19.90;99.90
2459;DHT22;1241;50.920;6.936;2023-05-29T08:39:38;20.00;99.90
2459;DHT22;1241;50.920;6.936;2023-05-29T08:42:04;20.00;99.90
2459;DHT22;1241;50.920;6.936;2023-05-29T08:44:33;19.90;99.90
2459;DHT22;1241;50.920;6.936;2023-05-29T08:47:01;19.60;99.90
2459;DHT22;1241;50.920;6.936;2023-05-29T08:49:42;19.20;99.90
2459;DHT22;1241;50.920;6.936;2023-05-29T08:52:19;19.30;99.90
2459;DHT22;1241;50.920;6.936;2023-05-29T08:54:45;19.60;99.90
2459;DHT22;1241;50.920;6.936;2023-05-29T08:57:11;19.70;99.90
2459;DHT22;1241;50.920;6.936;2023-05-29T08:59:41;19.70;99.90
2459;DHT22;1241;50.920;6.936;2023-05-29T09:02:07;19.70;99.90
2459;DHT22;1241;50.920;6.936;2023-05-29T09:04:33;19.70;99.90
2459;DHT22;1241;50.920;6.936;2023-05-29T09:06:59;19.80;99.90
2459;DHT22;1241;50.920;6.936;2023-05-29T09:09:29;20.10;99.90
2459;DHT22;1241;50.920;6.936;2023-05-29T09:11:57;20.40;99.90
2459;DHT22;1241;50.920;6.936;2023-05-29T09:14:37;20.40;99.90
2459;DHT22;1241;50.920;6.936;2023-05-29T09:17:05;20.70;99.90
2459;DHT22;1241;50.920;6.936;2023-05-29T09:19:32;20.90;99.90
2459;DHT22;1241;50.920;6.936;2023-05-29T09:22:06;21.10;99.90
2459;DHT22;1241;50.920;6.936;2023-05-29T09:24:34;21.10;99.90
2459;DHT22;1241;50.920;6.936;2023-05-29T09:27:01;20.90;99.90
2459;DHT22;1241;50.920;6.936;2023-05-29T09:29:30;20.70;99.90
2459;DHT22;1241;50.920;6.936;2023-05-29T09:31:56;20.70;99.90
2459;DHT22;1241;50.920;6.936;2023-05-29T09:34:24;20.60;99.90
2459;DHT22;1241;50.920;6.936;2023-05-29T09:36:52;20.50;99.90
2459;DHT22;1241;50.920;6.936;2023-05-29T09:39:18;20.50;99.90
2459;DHT22;1241;50.920;6.936;2023-05-29T09:41:44;20.70;99.90
2459;DHT22;1241;50.920;6.936;2023-05-29T09:44:13;20.50;99.90
2459;DHT22;1241;50.920;6.936;2023-05-29T09:46:43;20.50;99.90
2459;DHT22;1241;50.920;6.936;2023-05-29T09:49:12;20.80;99.90
2459;DHT22;1241;50.920;6.936;2023-05-29T09:51:39;20.90;99.90
2459;DHT22;1241;50.920;6.936;2023-05-29T09:54:17;21.20;99.90
2459;DHT22;1241;50.920;6.936;2023-05-29T09:56:44;21.00;99.90
2459;DHT22;1241;50.920;6.936;2023-05-29T09:59:15;20.60;99.90
2459;DHT22;1241;50.920;6.936;2023-05-29T10:01:44;20.80;99.90
2459;DHT22;1241;50.920;6.936;2023-05-29T10:04:10;20.90;99.90
2459;DHT22;1241;50.920;6.936;2023-05-29T10:06:37;21.00;99.90
2459;DHT22;1241;50.920;6.936;2023-05-29T10:09:07;20.80;99.90
2459;DHT22;1241;50.920;6.936;2023-05-29T10:11:38;20.90;99.90
2459;DHT22;1241;50.920;6.936;2023-05-29T10:14:06;21.10;99.90
2459;DHT22;1241;50.920;6.936;2023-05-29T10:16:35;21.20;99.90
2459;DHT22;1241;50.920;6.936;2023-05-29T10:19:06;21.30;99.90
2459;DHT22;1241;50.920;6.936;2023-05-29T10:21:37;21.40;99.90
2459;DHT22;1241;50.920;6.936;2023-05-29T10:24:06;21.40;99.90
2459;DHT22;1241;50.920;6.936;2023-05-29T10:26:36;21.30;99.90
2459;DHT22;1241;50.920;6.936;2023-05-29T10:34:50;21.20;99.90
2459;DHT22;1241;50.920;6.936;2023-05-29T10:40:04;21.50;99.90
2459;DHT22;1241;50.920;6.936;2023-05-29T10:45:10;21.70;99.90
2459;DHT22;1241;50.920;6.936;2023-05-29T10:47:38;21.30;99.90
2459;DHT22;1241;50.920;6.936;2023-05-29T10:50:05;21.20;99.90
2459;DHT22;1241;50.920;6.936;2023-05-29T10:52:34;21.30;99.90
2459;DHT22;1241;50.920;6.936;2023-05-29T10:55:01;21.50;99.90
2459;DHT22;1241;50.920;6.936;2023-05-29T10:57:30;21.60;99.90
2459;DHT22;1241;50.920;6.936;2023-05-29T11:00:02;21.50;99.90
2459;DHT22;1241;50.920;6.936;2023-05-29T11:02:30;21.20;99.90
2459;DHT22;1241;50.920;6.936;2023-05-29T11:05:27;21.20;99.90
2459;DHT22;1241;50.920;6.936;2023-05-29T11:07:55;21.20;99.90
2459;DHT22;1241;50.920;6.936;2023-05-29T11:16:10;21.00;99.90
2459;DHT22;1241;50.920;6.936;2023-05-29T11:18:45;21.00;99.90
2459;DHT22;1241;50.920;6.936;2023-05-29T11:24:25;21.10;99.90
2459;DHT22;1241;50.920;6.936;2023-05-29T11:26:52;21.20;99.90
2459;DHT22;1241;50.920;6.936;2023-05-29T11:29:22;21.40;99.90
2459;DHT22;1241;50.920;6.936;2023-05-29T11:31:53;20.90;99.90
2459;DHT22;1241;50.920;6.936;2023-05-29T11:34:21;20.90;99.90
2459;DHT22;1241;50.920;6.936;2023-05-29T11:36:48;21.00;99.90
2459;DHT22;1241;50.920;6.936;2023-05-29T11:39:14;21.10;99.90
2459;DHT22;1241;50.920;6.936;2023-05-29T11:41:40;21.40;99.90
2459;DHT22;1241;50.920;6.936;2023-05-29T11:44:06;21.60;99.90
2459;DHT22;1241;50.920;6.936;2023-05-29T11:46:32;21.90;99.90
2459;DHT22;1241;50.920;6.936;2023-05-29T11:48:59;22.10;99.90
2459;DHT22;1241;50.920;6.936;2023-05-29T11:51:25;22.10;99.90
2459;DHT22;1241;50.920;6.936;2023-05-29T11:53:51;22.10;99.90
2459;DHT22;1241;50.920;6.936;2023-05-29T11:56:26;22.00;99.90
2459;DHT22;1241;50.920;6.936;2023-05-29T11:58:53;22.10;99.90
2459;DHT22;1241;50.920;6.936;2023-05-29T12:01:26;21.90;99.90
2459;DHT22;1241;50.920;6.936;2023-05-29T12:03:53;22.20;99.90
2459;DHT22;1241;50.920;6.936;2023-05-29T12:06:34;22.20;99.90
2459;DHT22;1241;50.920;6.936;2023-05-29T12:09:02;21.90;99.90
2459;DHT22;1241;50.920;6.936;2023-05-29T12:11:29;22.00;99.90
2459;DHT22;1241;50.920;6.936;2023-05-29T12:13:59;22.00;99.90
2459;DHT22;1241;50.920;6.936;2023-05-29T12:16:29;21.90;99.90
2459;DHT22;1241;50.920;6.936;2023-05-29T12:18:56;21.80;99.90
2459;DHT22;1241;50.920;6.936;2023-05-29T12:21:22;22.00;99.90
2459;DHT22;1241;50.920;6.936;2023-05-29T12:23:52;22.10;99.90
2459;DHT22;1241;50.920;6.936;2023-05-29T12:26:22;22.20;99.90
2459;DHT22;1241;50.920;6.936;2023-05-29T12:28:50;22.40;99.90
2459;DHT22;1241;50.920;6.936;2023-05-29T12:31:27;22.50;99.90
2459;DHT22;1241;50.920;6.936;2023-05-29T12:33:53;22.30;99.90
2459;DHT22;1241;50.920;6.936;2023-05-29T12:36:19;22.10;99.90
2459;DHT22;1241;50.920;6.936;2023-05-29T12:38:51;22.10;99.90
2459;DHT22;1241;50.920;6.936;2023-05-29T12:41:24;22.30;99.90
2459;DHT22;1241;50.920;6.936;2023-05-29T12:43:53;22.30;99.90
2459;DHT22;1241;50.920;6.936;2023-05-29T12:46:20;22.20;99.90
2459;DHT22;1241;50.920;6.936;2023-05-29T12:48:46;22.20;99.90
2459;DHT22;1241;50.920;6.936;2023-05-29T12:51:12;22.30;99.90
2459;DHT22;1241;50.920;6.936;2023-05-29T12:53:38;22.30;99.90
2459;DHT22;1241;50.920;6.936;2023-05-29T12:56:03;22.20;99.90
2459;DHT22;1241;50.920;6.936;2023-05-29T12:58:29;22.20;99.90
2459;DHT22;1241;50.920;6.936;2023-05-29T13:00:55;22.30;99.90
2459;DHT22;1241;50.920;6.936;2023-05-29T13:03:21;22.30;99.90
2459;DHT22;1241;50.920;6.936;2023-05-29T13:05:50;22.10;99.90
2459;DHT22;1241;50.920;6.936;2023-05-29T13:08:15;22.10;99.90
2459;DHT22;1241;50.920;6.936;2023-05-29T13:10:41;22.30;99.90
2459;DHT22;1241;50.920;6.936;2023-05-29T13:13:07;22.30;99.90
2459;DHT22;1241;50.920;6.936;2023-05-29T13:15:33;22.30;99.90
2459;DHT22;1241;50.920;6.936;2023-05-29T13:17:59;22.50;99.90
2459;DHT22;1241;50.920;6.936;2023-05-29T13:20:25;22.50;99.90
2459;DHT22;1241;50.920;6.936;2023-05-29T13:22:51;22.50;99.90
2459;DHT22;1241;50.920;6.936;2023-05-29T13:25:19;22.50;99.90
2459;DHT22;1241;50.920;6.936;2023-05-29T13:27:48;22.30;99.90
2459;DHT22;1241;50.920;6.936;2023-05-29T13:30:15;22.40;99.90
2459;DHT22;1241;50.920;6.936;2023-05-29T13:32:41;22.60;99.90
2459;DHT22;1241;50.920;6.936;2023-05-29T13:35:08;22.50;99.90
2459;DHT22;1241;50.920;6.936;2023-05-29T13:37:36;22.10;99.90
2459;DHT22;1241;50.920;6.936;2023-05-29T13:40:02;22.10;99.90
2459;DHT22;1241;50.920;6.936;2023-05-29T13:42:29;22.20;99.90
2459;DHT22;1241;50.920;6.936;2023-05-29T13:44:55;22.00;99.90
2459;DHT22;1241;50.920;6.936;2023-05-29T13:47:20;21.90;99.90
2459;DHT22;1241;50.920;6.936;2023-05-29T13:49:46;21.90;99.90
2459;DHT22;1241;50.920;6.936;2023-05-29T13:52:12;22.10;99.90
2459;DHT22;1241;50.920;6.936;2023-05-29T13:54:38;22.30;99.90
2459;DHT22;1241;50.920;6.936;2023-05-29T13:57:05;22.40;99.90
2459;DHT22;1241;50.920;6.936;2023-05-29T13:59:32;22.50;99.90
2459;DHT22;1241;50.920;6.936;2023-05-29T14:01:58;22.60;99.90
2459;DHT22;1241;50.920;6.936;2023-05-29T14:04:24;22.60;99.90
2459;DHT22;1241;50.920;6.936;2023-05-29T14:06:50;22.40;99.90
2459;DHT22;1241;50.920;6.936;2023-05-29T14:09:16;22.40;99.90
2459;DHT22;1241;50.920;6.936;2023-05-29T14:11:42;22.40;99.90
2459;DHT22;1241;50.920;6.936;2023-05-29T14:14:08;22.40;99.90
2459;DHT22;1241;50.920;6.936;2023-05-29T14:16:33;22.50;99.90
2459;DHT22;1241;50.920;6.936;2023-05-29T14:19:00;22.60;99.90
2459;DHT22;1241;50.920;6.936;2023-05-29T14:21:25;22.60;99.90
2459;DHT22;1241;50.920;6.936;2023-05-29T14:23:51;22.30;99.90
2459;DHT22;1241;50.920;6.936;2023-05-29T14:26:17;22.30;99.90
2459;DHT22;1241;50.920;6.936;2023-05-29T14:28:44;22.50;99.90
2459;DHT22;1241;50.920;6.936;2023-05-29T14:31:10;22.60;99.90
2459;DHT22;1241;50.920;6.936;2023-05-29T14:33:35;22.40;99.90
2459;DHT22;1241;50.920;6.936;2023-05-29T14:36:02;22.30;99.90
2459;DHT22;1241;50.920;6.936;2023-05-29T14:38:28;22.30;99.90
2459;DHT22;1241;50.920;6.936;2023-05-29T14:40:55;22.10;99.90
2459;DHT22;1241;50.920;6.936;2023-05-29T14:43:20;21.90;99.90
2459;DHT22;1241;50.920;6.936;2023-05-29T14:45:46;22.00;99.90
2459;DHT22;1241;50.920;6.936;2023-05-29T14:48:11;22.20;99.90
2459;DHT22;1241;50.920;6.936;2023-05-29T14:50:37;22.20;99.90
2459;DHT22;1241;50.920;6.936;2023-05-29T14:53:03;21.80;99.90
2459;DHT22;1241;50.920;6.936;2023-05-29T14:55:29;21.80;99.90
2459;DHT22;1241;50.920;6.936;2023-05-29T14:57:57;21.90;99.90
2459;DHT22;1241;50.920;6.936;2023-05-29T15:00:23;22.10;99.90
2459;DHT22;1241;50.920;6.936;2023-05-29T15:02:49;22.10;99.90
2459;DHT22;1241;50.920;6.936;2023-05-29T15:05:14;21.90;99.90
2459;DHT22;1241;50.920;6.936;2023-05-29T15:07:40;22.00;99.90
2459;DHT22;1241;50.920;6.936;2023-05-29T15:10:06;21.90;99.90
2459;DHT22;1241;50.920;6.936;2023-05-29T15:12:32;22.00;99.90
2459;DHT22;1241;50.920;6.936;2023-05-29T15:14:58;22.00;99.90
2459;DHT22;1241;50.920;6.936;2023-05-29T15:17:24;22.00;99.90
2459;DHT22;1241;50.920;6.936;2023-05-29T15:19:50;22.10;99.90
2459;DHT22;1241;50.920;6.936;2023-05-29T15:22:15;22.10;99.90
2459;DHT22;1241;50.920;6.936;2023-05-29T15:24:41;22.10;99.90
2459;DHT22;1241;50.920;6.936;2023-05-29T15:27:07;22.30;99.90
2459;DHT22;1241;50.920;6.936;2023-05-29T15:29:34;22.30;99.90
2459;DHT22;1241;50.920;6.936;2023-05-29T15:32:00;22.00;99.90
2459;DHT22;1241;50.920;6.936;2023-05-29T15:34:26;21.80;99.90
2459;DHT22;1241;50.920;6.936;2023-05-29T15:36:52;21.90;99.90
2459;DHT22;1241;50.920;6.936;2023-05-29T15:39:18;21.90;99.90
2459;DHT22;1241;50.920;6.936;2023-05-29T15:41:44;21.90;99.90
2459;DHT22;1241;50.920;6.936;2023-05-29T15:44:09;22.10;99.90
2459;DHT22;1241;50.920;6.936;2023-05-29T15:46:35;22.00;99.90
2459;DHT22;1241;50.920;6.936;2023-05-29T15:49:01;21.80;99.90
2459;DHT22;1241;50.920;6.936;2023-05-29T15:51:27;21.80;99.90
2459;DHT22;1241;50.920;6.936;2023-05-29T15:53:53;21.70;99.90
2459;DHT22;1241;50.920;6.936;2023-05-29T15:56:19;21.50;99.90
2459;DHT22;1241;50.920;6.936;2023-05-29T15:58:50;21.40;99.90
2459;DHT22;1241;50.920;6.936;2023-05-29T16:01:16;21.40;99.90
2459;DHT22;1241;50.920;6.936;2023-05-29T16:03:41;21.20;99.90
2459;DHT22;1241;50.920;6.936;2023-05-29T16:06:08;21.20;99.90
2459;DHT22;1241;50.920;6.936;2023-05-29T16:08:33;21.30;99.90
2459;DHT22;1241;50.920;6.936;2023-05-29T16:10:59;21.40;99.90
2459;DHT22;1241;50.920;6.936;2023-05-29T16:13:25;21.30;99.90
2459;DHT22;1241;50.920;6.936;2023-05-29T16:15:51;21.10;99.90
2459;DHT22;1241;50.920;6.936;2023-05-29T16:18:16;21.00;99.90
2459;DHT22;1241;50.920;6.936;2023-05-29T16:20:42;20.80;99.90
2459;DHT22;1241;50.920;6.936;2023-05-29T16:23:08;20.70;99.90
2459;DHT22;1241;50.920;6.936;2023-05-29T16:25:33;20.70;99.90
2459;DHT22;1241;50.920;6.936;2023-05-29T16:27:59;20.60;99.90
2459;DHT22;1241;50.920;6.936;2023-05-29T16:30:25;20.60;99.90
2459;DHT22;1241;50.920;6.936;2023-05-29T16:32:50;20.70;99.90
2459;DHT22;1241;50.920;6.936;2023-05-29T16:35:17;20.80;99.90